Terminal Aerodrome Forecast
Issued by NWS

Home | Current Version | Previous Version | Text Only | Print | Product List | Glossary On
Versions: 1 2 3 4 5 6 7 8 9 10 11 12 13 14 15 16 17 18 19 20 21
000
FTUS46 KEKA 232300 RRA
TAFCEC
TAF
KCEC 232351Z 2400/2424 VRB04KT P6SM VCSH SCT025 BKN035
     FM240100 33004KT P6SM SCT040
     FM241000 36004KT 4SM BR BKN012
     FM241700 34008KT P6SM SCT015
     FM241900 32015G25KT P6SM SCT020=

USA.gov is the U.S. government's official web portal to all federal, state and local government web resources and services.